sensor_id;sensor_type;location;lat;lon;timestamp;temperature;humidity
52044;DHT22;38053;53.100;6.078;2023-08-12T00:02:13;18.90;99.90
52044;DHT22;38053;53.100;6.078;2023-08-12T00:04:39;18.90;99.90
52044;DHT22;38053;53.100;6.078;2023-08-12T00:07:05;18.90;99.90
52044;DHT22;38053;53.100;6.078;2023-08-12T00:09:32;18.90;99.90
52044;DHT22;38053;53.100;6.078;2023-08-12T00:11:59;18.90;99.90
52044;DHT22;38053;53.100;6.078;2023-08-12T00:14:25;18.90;99.90
52044;DHT22;38053;53.100;6.078;2023-08-12T00:16:51;18.90;99.90
52044;DHT22;38053;53.100;6.078;2023-08-12T00:19:16;18.90;99.90
52044;DHT22;38053;53.100;6.078;2023-08-12T00:21:42;18.90;99.90
52044;DHT22;38053;53.100;6.078;2023-08-12T00:24:09;18.90;99.90
52044;DHT22;38053;53.100;6.078;2023-08-12T00:26:38;18.90;99.90
52044;DHT22;38053;53.100;6.078;2023-08-12T00:29:04;18.90;99.90
52044;DHT22;38053;53.100;6.078;2023-08-12T00:31:31;18.90;99.90
52044;DHT22;38053;53.100;6.078;2023-08-12T00:33:58;18.90;99.90
52044;DHT22;38053;53.100;6.078;2023-08-12T00:36:23;18.90;99.90
52044;DHT22;38053;53.100;6.078;2023-08-12T00:38:52;18.90;99.90
52044;DHT22;38053;53.100;6.078;2023-08-12T00:41:18;18.80;99.90
52044;DHT22;38053;53.100;6.078;2023-08-12T00:43:43;18.80;99.90
52044;DHT22;38053;53.100;6.078;2023-08-12T00:46:11;18.80;99.90
52044;DHT22;38053;53.100;6.078;2023-08-12T00:48:37;18.80;99.90
52044;DHT22;38053;53.100;6.078;2023-08-12T00:51:03;18.80;99.90
52044;DHT22;38053;53.100;6.078;2023-08-12T00:53:29;18.80;99.90
52044;DHT22;38053;53.100;6.078;2023-08-12T00:55:55;18.80;99.90
52044;DHT22;38053;53.100;6.078;2023-08-12T00:58:21;18.80;99.90
52044;DHT22;38053;53.100;6.078;2023-08-12T01:00:50;18.80;99.90
52044;DHT22;38053;53.100;6.078;2023-08-12T01:03:15;18.70;99.90
52044;DHT22;38053;53.100;6.078;2023-08-12T01:05:42;18.70;99.90
52044;DHT22;38053;53.100;6.078;2023-08-12T01:08:08;18.70;99.90
52044;DHT22;38053;53.100;6.078;2023-08-12T01:10:37;18.70;99.90
52044;DHT22;38053;53.100;6.078;2023-08-12T01:13:29;18.70;99.90
52044;DHT22;38053;53.100;6.078;2023-08-12T01:15:58;18.70;99.90
52044;DHT22;38053;53.100;6.078;2023-08-12T01:18:26;18.60;99.90
52044;DHT22;38053;53.100;6.078;2023-08-12T01:20:54;18.60;99.90
52044;DHT22;38053;53.100;6.078;2023-08-12T01:23:21;18.60;99.90
52044;DHT22;38053;53.100;6.078;2023-08-12T01:25:47;18.60;99.90
52044;DHT22;38053;53.100;6.078;2023-08-12T01:28:13;18.50;99.90
52044;DHT22;38053;53.100;6.078;2023-08-12T01:31:04;18.50;99.90
52044;DHT22;38053;53.100;6.078;2023-08-12T01:33:58;18.50;99.90
52044;DHT22;38053;53.100;6.078;2023-08-12T01:36:29;18.40;99.90
52044;DHT22;38053;53.100;6.078;2023-08-12T01:38:59;18.40;99.90
52044;DHT22;38053;53.100;6.078;2023-08-12T01:41:26;18.30;99.90
52044;DHT22;38053;53.100;6.078;2023-08-12T01:43:52;18.30;99.90
52044;DHT22;38053;53.100;6.078;2023-08-12T01:46:18;18.30;99.90
52044;DHT22;38053;53.100;6.078;2023-08-12T01:48:44;18.20;99.90
52044;DHT22;38053;53.100;6.078;2023-08-12T01:51:09;18.20;99.90
52044;DHT22;38053;53.100;6.078;2023-08-12T01:53:35;18.30;99.90
52044;DHT22;38053;53.100;6.078;2023-08-12T01:56:01;18.20;99.90
52044;DHT22;38053;53.100;6.078;2023-08-12T01:58:27;18.20;99.90
52044;DHT22;38053;53.100;6.078;2023-08-12T02:00:53;18.30;99.90
52044;DHT22;38053;53.100;6.078;2023-08-12T02:03:19;18.30;99.90
52044;DHT22;38053;53.100;6.078;2023-08-12T02:05:48;18.30;99.90
52044;DHT22;38053;53.100;6.078;2023-08-12T02:08:14;18.30;99.90
52044;DHT22;38053;53.100;6.078;2023-08-12T02:10:42;18.30;99.90
52044;DHT22;38053;53.100;6.078;2023-08-12T02:13:11;18.40;99.90
52044;DHT22;38053;53.100;6.078;2023-08-12T02:15:38;18.40;99.90
52044;DHT22;38053;53.100;6.078;2023-08-12T02:18:04;18.40;99.90
52044;DHT22;38053;53.100;6.078;2023-08-12T02:20:30;18.40;99.90
52044;DHT22;38053;53.100;6.078;2023-08-12T02:22:59;18.40;99.90
52044;DHT22;38053;53.100;6.078;2023-08-12T02:25:25;18.40;99.90
52044;DHT22;38053;53.100;6.078;2023-08-12T02:27:51;18.40;99.90
52044;DHT22;38053;53.100;6.078;2023-08-12T02:30:17;18.40;99.90
52044;DHT22;38053;53.100;6.078;2023-08-12T02:32:47;18.40;99.90
52044;DHT22;38053;53.100;6.078;2023-08-12T02:35:13;18.40;99.90
52044;DHT22;38053;53.100;6.078;2023-08-12T02:37:40;18.30;99.90
52044;DHT22;38053;53.100;6.078;2023-08-12T02:40:06;18.30;99.90
52044;DHT22;38053;53.100;6.078;2023-08-12T02:42:33;18.30;99.90
52044;DHT22;38053;53.100;6.078;2023-08-12T02:44:58;18.30;99.90
52044;DHT22;38053;53.100;6.078;2023-08-12T02:47:26;18.30;99.90
52044;DHT22;38053;53.100;6.078;2023-08-12T02:49:52;18.30;99.90
52044;DHT22;38053;53.100;6.078;2023-08-12T02:52:19;18.30;99.90
52044;DHT22;38053;53.100;6.078;2023-08-12T02:54:44;18.30;99.90
52044;DHT22;38053;53.100;6.078;2023-08-12T02:57:10;18.30;99.90
52044;DHT22;38053;53.100;6.078;2023-08-12T02:59:40;18.30;99.90
52044;DHT22;38053;53.100;6.078;2023-08-12T03:02:06;18.20;99.90
52044;DHT22;38053;53.100;6.078;2023-08-12T03:04:32;18.20;99.90
52044;DHT22;38053;53.100;6.078;2023-08-12T03:06:57;18.30;99.90
52044;DHT22;38053;53.100;6.078;2023-08-12T03:09:23;18.30;99.90
52044;DHT22;38053;53.100;6.078;2023-08-12T03:11:49;18.30;99.90
52044;DHT22;38053;53.100;6.078;2023-08-12T03:14:15;18.30;99.90
52044;DHT22;38053;53.100;6.078;2023-08-12T03:16:41;18.30;99.90
52044;DHT22;38053;53.100;6.078;2023-08-12T03:19:06;18.30;99.90
52044;DHT22;38053;53.100;6.078;2023-08-12T03:21:32;18.30;99.90
52044;DHT22;38053;53.100;6.078;2023-08-12T03:24:00;18.40;99.90
52044;DHT22;38053;53.100;6.078;2023-08-12T03:26:26;18.40;99.90
52044;DHT22;38053;53.100;6.078;2023-08-12T03:28:55;18.40;99.90
52044;DHT22;38053;53.100;6.078;2023-08-12T03:31:20;18.50;99.90
52044;DHT22;38053;53.100;6.078;2023-08-12T03:33:46;18.50;99.90
52044;DHT22;38053;53.100;6.078;2023-08-12T03:36:13;18.50;99.90
52044;DHT22;38053;53.100;6.078;2023-08-12T03:38:39;18.50;99.90
52044;DHT22;38053;53.100;6.078;2023-08-12T03:41:05;18.50;99.90
52044;DHT22;38053;53.100;6.078;2023-08-12T03:43:31;18.50;99.90
52044;DHT22;38053;53.100;6.078;2023-08-12T03:45:59;18.50;99.90
52044;DHT22;38053;53.100;6.078;2023-08-12T03:48:24;18.60;99.90
52044;DHT22;38053;53.100;6.078;2023-08-12T03:50:50;18.60;99.90
52044;DHT22;38053;53.100;6.078;2023-08-12T03:53:16;18.60;99.90
52044;DHT22;38053;53.100;6.078;2023-08-12T03:55:43;18.60;99.90
52044;DHT22;38053;53.100;6.078;2023-08-12T03:58:09;18.60;99.90
52044;DHT22;38053;53.100;6.078;2023-08-12T04:00:35;18.60;99.90
52044;DHT22;38053;53.100;6.078;2023-08-12T04:03:00;18.60;99.90
52044;DHT22;38053;53.100;6.078;2023-08-12T04:05:26;18.60;99.90
52044;DHT22;38053;53.100;6.078;2023-08-12T04:07:52;18.60;99.90
52044;DHT22;38053;53.100;6.078;2023-08-12T04:10:18;18.60;99.90
52044;DHT22;38053;53.100;6.078;2023-08-12T04:12:44;18.60;99.90
52044;DHT22;38053;53.100;6.078;2023-08-12T04:15:11;18.60;99.90
52044;DHT22;38053;53.100;6.078;2023-08-12T04:17:37;18.60;99.90
52044;DHT22;38053;53.100;6.078;2023-08-12T04:20:03;18.60;99.90
52044;DHT22;38053;53.100;6.078;2023-08-12T04:22:31;18.60;99.90
52044;DHT22;38053;53.100;6.078;2023-08-12T04:24:57;18.60;99.90
52044;DHT22;38053;53.100;6.078;2023-08-12T04:27:23;18.60;99.90
52044;DHT22;38053;53.100;6.078;2023-08-12T04:29:48;18.60;99.90
52044;DHT22;38053;53.100;6.078;2023-08-12T04:32:14;18.70;99.90
52044;DHT22;38053;53.100;6.078;2023-08-12T04:34:40;18.70;99.90
52044;DHT22;38053;53.100;6.078;2023-08-12T04:37:05;18.70;99.90
52044;DHT22;38053;53.100;6.078;2023-08-12T04:39:31;18.70;99.90
52044;DHT22;38053;53.100;6.078;2023-08-12T04:41:58;18.70;99.90
52044;DHT22;38053;53.100;6.078;2023-08-12T04:44:23;18.70;99.90
52044;DHT22;38053;53.100;6.078;2023-08-12T04:46:52;18.80;99.90
52044;DHT22;38053;53.100;6.078;2023-08-12T04:49:18;18.80;99.90
52044;DHT22;38053;53.100;6.078;2023-08-12T04:51:47;18.80;99.90
52044;DHT22;38053;53.100;6.078;2023-08-12T04:54:13;18.80;99.90
52044;DHT22;38053;53.100;6.078;2023-08-12T04:56:38;18.90;99.90
52044;DHT22;38053;53.100;6.078;2023-08-12T04:59:04;18.80;99.90
52044;DHT22;38053;53.100;6.078;2023-08-12T05:01:30;18.90;99.90
52044;DHT22;38053;53.100;6.078;2023-08-12T05:03:55;18.90;99.90
52044;DHT22;38053;53.100;6.078;2023-08-12T05:06:22;18.90;99.90
52044;DHT22;38053;53.100;6.078;2023-08-12T05:08:48;19.00;99.90
52044;DHT22;38053;53.100;6.078;2023-08-12T05:11:14;19.00;99.90
52044;DHT22;38053;53.100;6.078;2023-08-12T05:13:39;19.00;99.90
52044;DHT22;38053;53.100;6.078;2023-08-12T05:16:05;19.00;99.90
52044;DHT22;38053;53.100;6.078;2023-08-12T05:18:31;19.10;99.90
52044;DHT22;38053;53.100;6.078;2023-08-12T05:20:56;19.10;99.90
52044;DHT22;38053;53.100;6.078;2023-08-12T05:23:23;19.20;99.90
52044;DHT22;38053;53.100;6.078;2023-08-12T05:25:48;19.20;99.90
52044;DHT22;38053;53.100;6.078;2023-08-12T05:28:14;19.30;99.90
52044;DHT22;38053;53.100;6.078;2023-08-12T05:30:40;19.40;99.90
52044;DHT22;38053;53.100;6.078;2023-08-12T05:33:06;19.40;99.90
52044;DHT22;38053;53.100;6.078;2023-08-12T05:35:35;19.40;99.90
52044;DHT22;38053;53.100;6.078;2023-08-12T05:38:01;19.40;99.90
52044;DHT22;38053;53.100;6.078;2023-08-12T05:40:27;19.50;99.90
52044;DHT22;38053;53.100;6.078;2023-08-12T05:42:56;19.50;99.90
52044;DHT22;38053;53.100;6.078;2023-08-12T05:45:22;19.50;99.90
52044;DHT22;38053;53.100;6.078;2023-08-12T05:47:48;19.50;99.90
52044;DHT22;38053;53.100;6.078;2023-08-12T05:50:15;19.50;99.90
52044;DHT22;38053;53.100;6.078;2023-08-12T05:52:41;19.60;99.90
52044;DHT22;38053;53.100;6.078;2023-08-12T05:55:07;19.50;99.90
52044;DHT22;38053;53.100;6.078;2023-08-12T05:57:33;19.60;99.90
52044;DHT22;38053;53.100;6.078;2023-08-12T05:59:58;19.60;99.90
52044;DHT22;38053;53.100;6.078;2023-08-12T06:02:25;19.60;99.90
52044;DHT22;38053;53.100;6.078;2023-08-12T06:04:52;19.60;99.90
52044;DHT22;38053;53.100;6.078;2023-08-12T06:07:17;19.70;99.90
52044;DHT22;38053;53.100;6.078;2023-08-12T06:09:44;19.70;99.90
52044;DHT22;38053;53.100;6.078;2023-08-12T06:12:10;19.70;99.90
52044;DHT22;38053;53.100;6.078;2023-08-12T06:14:37;19.70;99.90
52044;DHT22;38053;53.100;6.078;2023-08-12T06:17:04;19.70;99.90
52044;DHT22;38053;53.100;6.078;2023-08-12T06:19:30;19.70;99.90
52044;DHT22;38053;53.100;6.078;2023-08-12T06:21:56;19.70;99.90
52044;DHT22;38053;53.100;6.078;2023-08-12T06:24:21;19.70;99.90
52044;DHT22;38053;53.100;6.078;2023-08-12T06:26:48;19.70;99.90
52044;DHT22;38053;53.100;6.078;2023-08-12T06:29:15;19.80;99.90
52044;DHT22;38053;53.100;6.078;2023-08-12T06:31:41;19.80;99.90
52044;DHT22;38053;53.100;6.078;2023-08-12T06:34:07;19.80;99.90
52044;DHT22;38053;53.100;6.078;2023-08-12T06:36:33;19.90;99.90
52044;DHT22;38053;53.100;6.078;2023-08-12T06:39:01;19.90;99.90
52044;DHT22;38053;53.100;6.078;2023-08-12T06:41:28;19.90;99.90
52044;DHT22;38053;53.100;6.078;2023-08-12T06:43:57;20.00;99.90
52044;DHT22;38053;53.100;6.078;2023-08-12T06:46:22;20.00;99.90
52044;DHT22;38053;53.100;6.078;2023-08-12T06:48:51;20.10;99.90
52044;DHT22;38053;53.100;6.078;2023-08-12T06:51:18;20.10;99.90
52044;DHT22;38053;53.100;6.078;2023-08-12T06:53:44;20.20;99.90
52044;DHT22;38053;53.100;6.078;2023-08-12T06:56:09;20.20;99.90
52044;DHT22;38053;53.100;6.078;2023-08-12T06:58:35;20.20;99.90
52044;DHT22;38053;53.100;6.078;2023-08-12T07:01:02;20.20;99.90
52044;DHT22;38053;53.100;6.078;2023-08-12T07:03:27;20.20;99.90
52044;DHT22;38053;53.100;6.078;2023-08-12T07:05:54;20.20;99.90
52044;DHT22;38053;53.100;6.078;2023-08-12T07:08:20;20.20;99.90
52044;DHT22;38053;53.100;6.078;2023-08-12T07:10:46;20.30;99.90
52044;DHT22;38053;53.100;6.078;2023-08-12T07:13:11;20.30;99.90
52044;DHT22;38053;53.100;6.078;2023-08-12T07:15:38;20.30;99.90
52044;DHT22;38053;53.100;6.078;2023-08-12T07:18:04;20.30;99.90
52044;DHT22;38053;53.100;6.078;2023-08-12T07:20:30;20.30;99.90
52044;DHT22;38053;53.100;6.078;2023-08-12T07:22:56;20.30;99.90
52044;DHT22;38053;53.100;6.078;2023-08-12T07:25:21;20.30;99.90
52044;DHT22;38053;53.100;6.078;2023-08-12T07:27:47;20.40;99.90
52044;DHT22;38053;53.100;6.078;2023-08-12T07:30:13;20.40;99.90
52044;DHT22;38053;53.100;6.078;2023-08-12T07:32:39;20.40;99.90
52044;DHT22;38053;53.100;6.078;2023-08-12T07:35:05;20.40;99.90
52044;DHT22;38053;53.100;6.078;2023-08-12T07:37:32;20.40;99.90
52044;DHT22;38053;53.100;6.078;2023-08-12T07:39:58;20.40;99.90
52044;DHT22;38053;53.100;6.078;2023-08-12T07:42:24;20.40;99.90
52044;DHT22;38053;53.100;6.078;2023-08-12T07:44:49;20.40;99.90
52044;DHT22;38053;53.100;6.078;2023-08-12T07:47:15;20.40;99.90
52044;DHT22;38053;53.100;6.078;2023-08-12T07:49:42;20.40;99.90
52044;DHT22;38053;53.100;6.078;2023-08-12T07:52:09;20.40;99.90
52044;DHT22;38053;53.100;6.078;2023-08-12T07:54:35;20.40;99.90
52044;DHT22;38053;53.100;6.078;2023-08-12T07:57:04;20.40;99.90
52044;DHT22;38053;53.100;6.078;2023-08-12T07:59:30;20.40;99.90
52044;DHT22;38053;53.100;6.078;2023-08-12T08:01:56;20.40;99.90
52044;DHT22;38053;53.100;6.078;2023-08-12T08:04:21;20.40;99.90
52044;DHT22;38053;53.100;6.078;2023-08-12T08:06:49;20.40;99.90
52044;DHT22;38053;53.100;6.078;2023-08-12T08:09:15;20.40;99.90
52044;DHT22;38053;53.100;6.078;2023-08-12T08:11:42;20.30;99.90
52044;DHT22;38053;53.100;6.078;2023-08-12T08:14:08;20.30;99.90
52044;DHT22;38053;53.100;6.078;2023-08-12T08:16:38;20.30;99.90
52044;DHT22;38053;53.100;6.078;2023-08-12T08:19:10;20.20;99.90
52044;DHT22;38053;53.100;6.078;2023-08-12T08:21:37;20.20;99.90
52044;DHT22;38053;53.100;6.078;2023-08-12T08:24:02;20.10;99.90
52044;DHT22;38053;53.100;6.078;2023-08-12T08:26:31;20.10;99.90
52044;DHT22;38053;53.100;6.078;2023-08-12T08:28:57;20.00;99.90
52044;DHT22;38053;53.100;6.078;2023-08-12T08:31:24;20.00;99.90
52044;DHT22;38053;53.100;6.078;2023-08-12T08:33:50;20.00;99.90
52044;DHT22;38053;53.100;6.078;2023-08-12T08:36:16;19.90;99.90
52044;DHT22;38053;53.100;6.078;2023-08-12T08:38:43;19.90;99.90
52044;DHT22;38053;53.100;6.078;2023-08-12T08:41:09;19.80;99.90
52044;DHT22;38053;53.100;6.078;2023-08-12T08:43:39;19.90;99.90
52044;DHT22;38053;53.100;6.078;2023-08-12T08:46:10;19.90;99.90
52044;DHT22;38053;53.100;6.078;2023-08-12T08:48:37;19.90;99.90
52044;DHT22;38053;53.100;6.078;2023-08-12T08:51:03;20.00;99.90
52044;DHT22;38053;53.100;6.078;2023-08-12T08:53:30;20.00;99.90
52044;DHT22;38053;53.100;6.078;2023-08-12T08:55:56;20.10;99.90
52044;DHT22;38053;53.100;6.078;2023-08-12T08:58:23;20.20;99.90
52044;DHT22;38053;53.100;6.078;2023-08-12T09:00:49;20.20;99.90
52044;DHT22;38053;53.100;6.078;2023-08-12T09:03:16;20.10;99.90
52044;DHT22;38053;53.100;6.078;2023-08-12T09:05:42;20.10;99.90
52044;DHT22;38053;53.100;6.078;2023-08-12T09:08:09;20.10;99.90
52044;DHT22;38053;53.100;6.078;2023-08-12T09:10:38;20.10;99.90
52044;DHT22;38053;53.100;6.078;2023-08-12T09:13:05;20.10;99.90
52044;DHT22;38053;53.100;6.078;2023-08-12T09:15:34;20.10;99.90
52044;DHT22;38053;53.100;6.078;2023-08-12T09:18:00;20.00;99.90
52044;DHT22;38053;53.100;6.078;2023-08-12T09:20:26;20.00;99.90
52044;DHT22;38053;53.100;6.078;2023-08-12T09:22:56;20.00;99.90
52044;DHT22;38053;53.100;6.078;2023-08-12T09:25:23;20.00;99.90
52044;DHT22;38053;53.100;6.078;2023-08-12T09:27:49;19.90;99.90
52044;DHT22;38053;53.100;6.078;2023-08-12T09:30:16;19.90;99.90
52044;DHT22;38053;53.100;6.078;2023-08-12T09:32:43;19.90;99.90
52044;DHT22;38053;53.100;6.078;2023-08-12T09:35:22;19.90;99.90
52044;DHT22;38053;53.100;6.078;2023-08-12T09:37:49;19.90;99.90
52044;DHT22;38053;53.100;6.078;2023-08-12T09:40:16;19.90;99.90
52044;DHT22;38053;53.100;6.078;2023-08-12T09:42:45;19.90;99.90
52044;DHT22;38053;53.100;6.078;2023-08-12T09:45:12;19.90;99.90
52044;DHT22;38053;53.100;6.078;2023-08-12T09:47:37;19.90;99.90
52044;DHT22;38053;53.100;6.078;2023-08-12T09:50:07;19.90;99.90
52044;DHT22;38053;53.100;6.078;2023-08-12T09:52:32;20.00;99.90
52044;DHT22;38053;53.100;6.078;2023-08-12T09:54:59;20.00;99.90
52044;DHT22;38053;53.100;6.078;2023-08-12T09:57:28;20.10;99.90
52044;DHT22;38053;53.100;6.078;2023-08-12T09:59:57;20.10;99.90
52044;DHT22;38053;53.100;6.078;2023-08-12T10:02:23;20.20;99.90
52044;DHT22;38053;53.100;6.078;2023-08-12T10:04:50;20.20;99.90
52044;DHT22;38053;53.100;6.078;2023-08-12T10:07:19;20.20;99.90
52044;DHT22;38053;53.100;6.078;2023-08-12T10:09:45;20.20;99.90
52044;DHT22;38053;53.100;6.078;2023-08-12T10:12:12;20.20;99.90
52044;DHT22;38053;53.100;6.078;2023-08-12T10:14:38;20.20;99.90
52044;DHT22;38053;53.100;6.078;2023-08-12T10:17:05;20.20;99.90
52044;DHT22;38053;53.100;6.078;2023-08-12T10:19:31;20.20;99.90
52044;DHT22;38053;53.100;6.078;2023-08-12T10:21:58;20.20;99.90
52044;DHT22;38053;53.100;6.078;2023-08-12T10:24:26;20.20;99.90
52044;DHT22;38053;53.100;6.078;2023-08-12T10:26:53;20.20;99.90
52044;DHT22;38053;53.100;6.078;2023-08-12T10:29:20;20.30;99.90
52044;DHT22;38053;53.100;6.078;2023-08-12T10:31:49;20.30;99.90
52044;DHT22;38053;53.100;6.078;2023-08-12T10:34:23;20.30;99.90
52044;DHT22;38053;53.100;6.078;2023-08-12T10:37:02;20.30;99.90
52044;DHT22;38053;53.100;6.078;2023-08-12T10:39:32;20.20;99.90
52044;DHT22;38053;53.100;6.078;2023-08-12T10:41:59;20.00;99.90
52044;DHT22;38053;53.100;6.078;2023-08-12T10:44:49;19.50;99.90
52044;DHT22;38053;53.100;6.078;2023-08-12T10:47:16;19.10;99.90
52044;DHT22;38053;53.100;6.078;2023-08-12T10:49:49;18.80;99.90
52044;DHT22;38053;53.100;6.078;2023-08-12T10:52:29;18.50;99.90
52044;DHT22;38053;53.100;6.078;2023-08-12T10:54:55;18.20;99.90
52044;DHT22;38053;53.100;6.078;2023-08-12T10:57:40;17.90;99.90
52044;DHT22;38053;53.100;6.078;2023-08-12T11:00:11;17.70;99.90
52044;DHT22;38053;53.100;6.078;2023-08-12T11:02:38;17.50;99.90
52044;DHT22;38053;53.100;6.078;2023-08-12T11:05:12;17.50;99.90
52044;DHT22;38053;53.100;6.078;2023-08-12T11:07:44;17.50;99.90
52044;DHT22;38053;53.100;6.078;2023-08-12T11:10:19;17.60;99.90
52044;DHT22;38053;53.100;6.078;2023-08-12T11:12:55;17.60;99.90
52044;DHT22;38053;53.100;6.078;2023-08-12T11:15:37;17.70;99.90
52044;DHT22;38053;53.100;6.078;2023-08-12T11:18:15;17.70;99.90
52044;DHT22;38053;53.100;6.078;2023-08-12T11:20:42;17.80;99.90
52044;DHT22;38053;53.100;6.078;2023-08-12T11:23:09;17.80;99.90
52044;DHT22;38053;53.100;6.078;2023-08-12T11:25:36;17.90;99.90
52044;DHT22;38053;53.100;6.078;2023-08-12T11:28:07;17.90;99.90
52044;DHT22;38053;53.100;6.078;2023-08-12T11:30:33;18.00;99.90
52044;DHT22;38053;53.100;6.078;2023-08-12T11:33:00;17.90;99.90
52044;DHT22;38053;53.100;6.078;2023-08-12T11:35:26;17.90;99.90
52044;DHT22;38053;53.100;6.078;2023-08-12T11:37:54;17.90;99.90
52044;DHT22;38053;53.100;6.078;2023-08-12T11:40:22;17.90;99.90
52044;DHT22;38053;53.100;6.078;2023-08-12T11:42:50;17.90;99.90
52044;DHT22;38053;53.100;6.078;2023-08-12T11:45:21;17.90;99.90
52044;DHT22;38053;53.100;6.078;2023-08-12T11:47:47;18.00;99.90
52044;DHT22;38053;53.100;6.078;2023-08-12T11:50:22;18.00;99.90
52044;DHT22;38053;53.100;6.078;2023-08-12T11:52:48;18.00;99.90
52044;DHT22;38053;53.100;6.078;2023-08-12T11:55:15;18.00;99.90
52044;DHT22;38053;53.100;6.078;2023-08-12T11:57:41;18.00;99.90
52044;DHT22;38053;53.100;6.078;2023-08-12T12:00:08;18.10;99.90
52044;DHT22;38053;53.100;6.078;2023-08-12T12:02:49;18.20;99.90
52044;DHT22;38053;53.100;6.078;2023-08-12T12:05:16;18.40;99.90
52044;DHT22;38053;53.100;6.078;2023-08-12T12:07:42;18.50;99.90
52044;DHT22;38053;53.100;6.078;2023-08-12T12:10:13;18.70;99.90
52044;DHT22;38053;53.100;6.078;2023-08-12T12:12:40;18.80;99.90
52044;DHT22;38053;53.100;6.078;2023-08-12T12:15:07;19.10;99.90
52044;DHT22;38053;53.100;6.078;2023-08-12T12:17:38;19.30;99.90
52044;DHT22;38053;53.100;6.078;2023-08-12T12:20:03;19.40;99.90
52044;DHT22;38053;53.100;6.078;2023-08-12T12:22:33;19.40;99.90
52044;DHT22;38053;53.100;6.078;2023-08-12T12:25:00;19.40;99.90
52044;DHT22;38053;53.100;6.078;2023-08-12T12:27:30;19.50;99.90
52044;DHT22;38053;53.100;6.078;2023-08-12T12:29:56;19.60;99.90
52044;DHT22;38053;53.100;6.078;2023-08-12T12:32:22;19.60;99.90
52044;DHT22;38053;53.100;6.078;2023-08-12T12:34:48;19.70;99.90
52044;DHT22;38053;53.100;6.078;2023-08-12T12:37:14;19.90;99.90
52044;DHT22;38053;53.100;6.078;2023-08-12T12:39:40;20.30;99.90
52044;DHT22;38053;53.100;6.078;2023-08-12T12:42:06;20.70;99.90
52044;DHT22;38053;53.100;6.078;2023-08-12T12:44:32;21.20;99.90
52044;DHT22;38053;53.100;6.078;2023-08-12T12:46:58;21.50;99.90
52044;DHT22;38053;53.100;6.078;2023-08-12T12:49:25;21.80;99.90
52044;DHT22;38053;53.100;6.078;2023-08-12T12:51:50;22.10;99.90
52044;DHT22;38053;53.100;6.078;2023-08-12T12:54:17;22.20;99.90
52044;DHT22;38053;53.100;6.078;2023-08-12T12:56:42;22.40;99.90
52044;DHT22;38053;53.100;6.078;2023-08-12T12:59:10;22.40;99.90
52044;DHT22;38053;53.100;6.078;2023-08-12T13:01:35;22.50;99.90
52044;DHT22;38053;53.100;6.078;2023-08-12T13:04:02;22.70;99.90
52044;DHT22;38053;53.100;6.078;2023-08-12T13:06:28;23.10;99.90
52044;DHT22;38053;53.100;6.078;2023-08-12T13:08:53;23.60;99.90
52044;DHT22;38053;53.100;6.078;2023-08-12T13:11:19;23.80;99.90
52044;DHT22;38053;53.100;6.078;2023-08-12T13:13:46;23.90;99.90
52044;DHT22;38053;53.100;6.078;2023-08-12T13:16:13;24.00;99.90
52044;DHT22;38053;53.100;6.078;2023-08-12T13:18:40;24.20;99.90
52044;DHT22;38053;53.100;6.078;2023-08-12T13:21:09;24.60;99.90
52044;DHT22;38053;53.100;6.078;2023-08-12T13:23:36;24.80;99.90
52044;DHT22;38053;53.100;6.078;2023-08-12T13:26:01;24.90;99.90
52044;DHT22;38053;53.100;6.078;2023-08-12T13:28:28;24.70;99.90
52044;DHT22;38053;53.100;6.078;2023-08-12T13:30:53;24.70;99.90
52044;DHT22;38053;53.100;6.078;2023-08-12T13:33:21;24.70;99.90
52044;DHT22;38053;53.100;6.078;2023-08-12T13:35:47;24.80;99.90
52044;DHT22;38053;53.100;6.078;2023-08-12T13:38:13;24.80;99.90
52044;DHT22;38053;53.100;6.078;2023-08-12T13:40:40;24.60;99.90
52044;DHT22;38053;53.100;6.078;2023-08-12T13:43:05;24.70;99.90
52044;DHT22;38053;53.100;6.078;2023-08-12T13:45:31;24.80;99.90
52044;DHT22;38053;53.100;6.078;2023-08-12T13:47:57;24.90;99.90
52044;DHT22;38053;53.100;6.078;2023-08-12T13:50:22;24.80;99.90
52044;DHT22;38053;53.100;6.078;2023-08-12T13:52:48;24.50;99.90
52044;DHT22;38053;53.100;6.078;2023-08-12T13:55:16;24.10;99.90
52044;DHT22;38053;53.100;6.078;2023-08-12T13:57:42;23.50;99.90
52044;DHT22;38053;53.100;6.078;2023-08-12T14:00:08;23.10;99.90
52044;DHT22;38053;53.100;6.078;2023-08-12T14:02:40;22.70;99.90
52044;DHT22;38053;53.100;6.078;2023-08-12T14:05:06;22.50;99.90
52044;DHT22;38053;53.100;6.078;2023-08-12T14:07:33;22.60;99.90
52044;DHT22;38053;53.100;6.078;2023-08-12T14:09:59;22.70;99.90
52044;DHT22;38053;53.100;6.078;2023-08-12T14:12:25;22.90;99.90
52044;DHT22;38053;53.100;6.078;2023-08-12T14:14:51;23.10;99.90
52044;DHT22;38053;53.100;6.078;2023-08-12T14:17:17;23.20;99.90
52044;DHT22;38053;53.100;6.078;2023-08-12T14:19:44;23.30;99.90
52044;DHT22;38053;53.100;6.078;2023-08-12T14:22:13;23.50;99.90
52044;DHT22;38053;53.100;6.078;2023-08-12T14:24:39;23.50;99.90
52044;DHT22;38053;53.100;6.078;2023-08-12T14:27:04;23.40;99.90
52044;DHT22;38053;53.100;6.078;2023-08-12T14:29:30;23.20;99.90
52044;DHT22;38053;53.100;6.078;2023-08-12T14:31:57;23.10;99.90
52044;DHT22;38053;53.100;6.078;2023-08-12T14:34:23;23.20;99.90
52044;DHT22;38053;53.100;6.078;2023-08-12T14:36:49;23.40;99.90
52044;DHT22;38053;53.100;6.078;2023-08-12T14:39:18;23.40;99.90
52044;DHT22;38053;53.100;6.078;2023-08-12T14:41:44;23.70;99.90
52044;DHT22;38053;53.100;6.078;2023-08-12T14:44:10;24.20;99.90
52044;DHT22;38053;53.100;6.078;2023-08-12T14:46:35;24.40;99.90
52044;DHT22;38053;53.100;6.078;2023-08-12T14:49:01;24.40;99.90
52044;DHT22;38053;53.100;6.078;2023-08-12T14:51:27;24.30;99.90
52044;DHT22;38053;53.100;6.078;2023-08-12T14:53:54;24.10;99.90
52044;DHT22;38053;53.100;6.078;2023-08-12T14:56:20;23.80;99.90
52044;DHT22;38053;53.100;6.078;2023-08-12T14:58:46;23.70;99.90
52044;DHT22;38053;53.100;6.078;2023-08-12T15:01:12;23.70;99.90
52044;DHT22;38053;53.100;6.078;2023-08-12T15:03:38;23.70;99.90
52044;DHT22;38053;53.100;6.078;2023-08-12T15:06:04;23.70;99.90
52044;DHT22;38053;53.100;6.078;2023-08-12T15:08:31;23.60;99.90
52044;DHT22;38053;53.100;6.078;2023-08-12T15:10:57;23.50;99.90
52044;DHT22;38053;53.100;6.078;2023-08-12T15:13:24;23.40;99.90
52044;DHT22;38053;53.100;6.078;2023-08-12T15:15:50;23.40;99.90
52044;DHT22;38053;53.100;6.078;2023-08-12T15:18:17;23.40;99.90
52044;DHT22;38053;53.100;6.078;2023-08-12T15:20:42;23.40;99.90
52044;DHT22;38053;53.100;6.078;2023-08-12T15:23:09;23.40;99.90
52044;DHT22;38053;53.100;6.078;2023-08-12T15:25:36;23.20;99.90
52044;DHT22;38053;53.100;6.078;2023-08-12T15:28:03;23.20;99.90
52044;DHT22;38053;53.100;6.078;2023-08-12T15:30:29;23.10;99.90